createdAt,value
2022-09-12T00:01:55.451Z,8.00
2022-09-12T00:04:41.138Z,5.75
2022-09-12T00:07:27.298Z,7.63
2022-09-12T00:10:13.698Z,4.82
2022-09-12T00:12:59.291Z,8.32
2022-09-12T00:15:45.614Z,6.60
2022-09-12T00:18:32.204Z,7.07
2022-09-12T00:21:18.917Z,11.02
2022-09-12T00:24:05.790Z,6.38
2022-09-12T00:26:51.390Z,5.45
2022-09-12T00:29:37.544Z,5.43
2022-09-12T00:32:23.413Z,7.43
2022-09-12T00:35:09.880Z,7.93
2022-09-12T00:37:55.716Z,6.07
2022-09-12T00:40:42.386Z,7.65
2022-09-12T00:43:40.143Z,9.27
2022-09-12T00:46:32.075Z,9.13
2022-09-12T00:49:25.741Z,8.30
2022-09-12T00:52:33.520Z,9.73
2022-09-12T00:55:38.226Z,5.30
2022-09-12T00:58:36.069Z,7.22
2022-09-12T01:01:21.760Z,4.93
2022-09-12T01:04:09.489Z,4.97
2022-09-12T01:06:57.361Z,7.45
2022-09-12T01:09:44.610Z,6.15
2022-09-12T01:12:31.377Z,8.25
2022-09-12T01:15:17.347Z,8.93
2022-09-12T01:18:32.905Z,6.22
2022-09-12T01:21:30.541Z,5.50
2022-09-12T01:25:00.074Z,9.07
2022-09-12T01:27:52.236Z,6.23
2022-09-12T01:31:00.974Z,6.35
2022-09-12T01:34:13.803Z,7.72
2022-09-12T01:37:09.453Z,6.28
2022-09-12T01:40:21.675Z,4.40
2022-09-12T01:43:37.796Z,6.55
2022-09-12T01:46:43.963Z,6.40
2022-09-12T01:49:37.914Z,6.47
2022-09-12T01:52:39.789Z,6.50
2022-09-12T01:55:32.896Z,4.93
2022-09-12T01:58:26.926Z,6.40
2022-09-12T02:01:16.600Z,5.30
2022-09-12T02:04:24.769Z,6.53
2022-09-12T02:07:20.192Z,5.78
2022-09-12T02:10:12.106Z,6.95
2022-09-12T02:13:01.850Z,8.05
2022-09-12T02:15:52.026Z,7.90
2022-09-12T02:18:45.308Z,5.53
2022-09-12T02:21:33.100Z,5.60
2022-09-12T02:24:20.958Z,6.35
2022-09-12T02:27:16.545Z,5.35
2022-09-12T02:30:02.563Z,4.97
2022-09-12T02:32:51.558Z,7.15
2022-09-12T02:35:53.093Z,6.65
2022-09-12T02:38:47.047Z,5.65
2022-09-12T02:41:33.341Z,7.60
2022-09-12T02:44:20.792Z,7.43
2022-09-12T02:47:14.558Z,8.82
2022-09-12T02:50:00.401Z,6.05
2022-09-12T02:52:46.644Z,8.73
2022-09-12T02:55:34.545Z,6.93
2022-09-12T02:58:24.515Z,6.55
2022-09-12T03:01:19.011Z,5.80
2022-09-12T03:04:07.981Z,5.30
2022-09-12T03:07:07.914Z,8.27
2022-09-12T03:10:18.642Z,9.18
2022-09-12T03:13:25.943Z,6.22
2022-09-12T03:16:24.969Z,8.65
2022-09-12T03:19:55.750Z,5.22
2022-09-12T03:22:52.940Z,8.82
2022-09-12T03:25:48.041Z,6.85
2022-09-12T03:28:35.769Z,8.90
2022-09-12T03:31:22.515Z,7.15
2022-09-12T03:34:13.027Z,5.00
2022-09-12T03:36:59.467Z,4.82
2022-09-12T03:39:44.878Z,7.50
2022-09-12T03:42:30.777Z,6.40
2022-09-12T03:45:16.695Z,6.90
2022-09-12T03:48:04.058Z,5.93
2022-09-12T03:50:49.753Z,7.85
2022-09-12T03:53:36.830Z,6.88
2022-09-12T03:56:22.491Z,8.65
2022-09-12T03:59:08.887Z,5.60
2022-09-12T04:01:54.768Z,6.78
2022-09-12T04:04:43.323Z,6.93
2022-09-12T04:07:29.634Z,5.97
2022-09-12T04:10:16.339Z,7.10
2022-09-12T04:13:02.540Z,8.88
2022-09-12T04:15:59.580Z,6.03
2022-09-12T04:18:46.694Z,6.20
2022-09-12T04:21:32.795Z,6.80
2022-09-12T04:24:20.706Z,6.80
2022-09-12T04:27:08.597Z,8.48
2022-09-12T04:29:55.356Z,5.65
2022-09-12T04:32:41.554Z,6.45
2022-09-12T04:35:27.777Z,8.73
2022-09-12T04:38:13.739Z,8.20
2022-09-12T04:41:00.372Z,6.18
2022-09-12T04:43:47.672Z,9.43
2022-09-12T04:46:36.339Z,8.75
2022-09-12T04:49:21.911Z,6.22
2022-09-12T04:52:08.227Z,7.18
2022-09-12T04:54:54.340Z,7.45
2022-09-12T04:57:40.051Z,8.77
2022-09-12T05:00:25.729Z,8.23
2022-09-12T05:03:11.473Z,8.85
2022-09-12T05:05:57.683Z,7.72
2022-09-12T05:08:44.210Z,7.30
2022-09-12T05:12:00.161Z,7.78
2022-09-12T05:14:38.792Z,5.45
2022-09-12T05:17:25.520Z,7.25
2022-09-12T05:20:12.851Z,7.35
2022-09-12T05:22:59.904Z,7.47
2022-09-12T05:25:52.757Z,6.53
2022-09-12T05:28:39.666Z,9.55
2022-09-12T05:31:27.605Z,13.02
2022-09-12T05:34:16.981Z,6.05
2022-09-12T05:37:02.629Z,6.53
2022-09-12T05:39:48.985Z,6.55
2022-09-12T05:42:34.537Z,9.23
2022-09-12T05:45:21.490Z,10.10
2022-09-12T05:48:07.105Z,8.05
2022-09-12T05:50:53.055Z,6.55
2022-09-12T05:53:40.265Z,8.93
2022-09-12T05:56:28.794Z,6.45
2022-09-12T05:59:22.364Z,7.10
2022-09-12T06:02:10.180Z,7.55
2022-09-12T06:04:56.078Z,7.65
2022-09-12T06:07:41.844Z,6.22
2022-09-12T06:10:28.299Z,7.88
2022-09-12T06:13:14.281Z,6.40
2022-09-12T06:16:11.371Z,8.18
2022-09-12T06:19:10.420Z,9.25
2022-09-12T06:22:07.789Z,8.07
2022-09-12T06:24:57.764Z,6.47
2022-09-12T06:30:32.501Z,6.90
2022-09-12T06:33:19.056Z,6.38
2022-09-12T06:36:11.578Z,5.00
2022-09-12T06:39:07.633Z,4.97
2022-09-12T06:41:54.562Z,7.63
2022-09-12T06:44:52.075Z,9.23
2022-09-12T06:47:37.729Z,6.32
2022-09-12T06:50:23.961Z,8.00
2022-09-12T06:53:10.081Z,7.63
2022-09-12T06:56:00.533Z,7.78
2022-09-12T06:58:49.716Z,8.52
2022-09-12T07:01:35.639Z,7.63
2022-09-12T07:04:22.151Z,13.70
2022-09-12T07:07:08.021Z,8.75
2022-09-12T07:09:54.226Z,4.60
2022-09-12T07:12:39.995Z,6.30
2022-09-12T07:15:25.774Z,6.95
2022-09-12T07:18:11.349Z,7.95
2022-09-12T07:21:00.316Z,6.60
2022-09-12T07:23:46.166Z,8.73
2022-09-12T07:26:32.612Z,4.20
2022-09-12T07:29:36.700Z,4.22
2022-09-12T07:32:23.398Z,7.03
2022-09-12T07:35:08.997Z,6.38
2022-09-12T07:37:55.126Z,6.45
2022-09-12T07:40:40.879Z,5.93
2022-09-12T07:43:27.311Z,8.48
2022-09-12T07:46:12.982Z,6.03
2022-09-12T07:49:00.826Z,9.18
2022-09-12T07:51:46.818Z,5.88
2022-09-12T07:54:33.326Z,9.35
2022-09-12T07:57:19.505Z,6.82
2022-09-12T08:00:07.421Z,6.65
2022-09-12T08:02:58.027Z,6.82
2022-09-12T08:05:44.167Z,4.40
2022-09-12T08:08:29.921Z,4.68
2022-09-12T08:11:18.156Z,6.82
2022-09-12T08:14:05.688Z,4.95
2022-09-12T08:16:51.893Z,5.88
2022-09-12T08:19:38.835Z,6.80
2022-09-12T08:22:25.862Z,4.15
2022-09-12T08:25:11.881Z,5.30
2022-09-12T08:27:57.820Z,5.85
2022-09-12T08:30:43.367Z,8.70
2022-09-12T08:33:33.210Z,8.18
2022-09-12T08:36:21.389Z,6.13
2022-09-12T08:39:07.940Z,6.45
2022-09-12T08:42:04.876Z,5.22
2022-09-12T08:45:17.761Z,4.30
2022-09-12T08:48:05.004Z,4.55
2022-09-12T08:50:51.450Z,7.00
2022-09-12T08:53:37.640Z,6.28
2022-09-12T08:56:27.428Z,5.40
2022-09-12T08:59:16.594Z,4.00
2022-09-12T09:02:04.500Z,4.05
2022-09-12T09:04:52.260Z,3.67
2022-09-12T09:08:08.953Z,15.93
2022-09-12T09:11:21.436Z,3.15
2022-09-12T09:14:48.320Z,4.75
2022-09-12T09:17:50.026Z,2.20
2022-09-12T09:20:47.363Z,2.60
2022-09-12T09:23:46.339Z,4.10
2022-09-12T09:26:56.575Z,5.57
2022-09-12T09:29:47.078Z,2.47
2022-09-12T09:32:38.550Z,3.08
2022-09-12T09:35:45.656Z,4.32
2022-09-12T09:38:51.066Z,4.78
2022-09-12T09:41:46.297Z,2.38
2022-09-12T09:44:32.411Z,3.45
2022-09-12T09:47:18.567Z,6.60
2022-09-12T09:50:04.374Z,5.40
2022-09-12T09:52:52.109Z,4.88
2022-09-12T09:55:43.853Z,4.00
2022-09-12T09:58:31.291Z,5.95
2022-09-12T10:01:18.221Z,6.43
2022-09-12T10:04:04.411Z,4.00
2022-09-12T10:06:57.033Z,5.50
2022-09-12T10:09:42.685Z,4.13
2022-09-12T10:12:28.821Z,2.65
2022-09-12T10:15:26.976Z,3.35
2022-09-12T10:18:51.069Z,5.63
2022-09-12T10:21:48.253Z,6.70
2022-09-12T10:24:41.165Z,2.70
2022-09-12T10:27:33.186Z,2.55
2022-09-12T10:30:21.717Z,5.28
2022-09-12T10:33:11.203Z,2.80
2022-09-12T10:36:03.630Z,3.15
2022-09-12T10:38:54.697Z,2.28
2022-09-12T10:41:41.153Z,2.25
2022-09-12T10:44:33.269Z,4.38
2022-09-12T10:47:22.671Z,5.47
2022-09-12T10:50:24.098Z,4.05
2022-09-12T10:53:30.990Z,3.58
2022-09-12T10:56:26.427Z,3.53
2022-09-12T10:59:34.358Z,4.32
2022-09-12T11:02:35.125Z,3.10
2022-09-12T11:05:43.140Z,3.42
2022-09-12T11:08:53.965Z,2.05
2022-09-12T11:11:46.252Z,3.30
2022-09-12T11:14:47.141Z,3.15
2022-09-12T11:17:36.120Z,6.10
2022-09-12T11:20:51.558Z,2.38
2022-09-12T11:23:49.449Z,3.25
2022-09-12T11:26:55.630Z,2.67
2022-09-12T11:29:48.558Z,3.15
2022-09-12T11:32:46.641Z,1.77
2022-09-12T11:35:34.141Z,3.72
2022-09-12T11:38:35.161Z,3.75
2022-09-12T11:41:29.455Z,3.30
2022-09-12T11:44:22.658Z,3.17
2022-09-12T11:47:12.136Z,3.47
2022-09-12T11:49:59.893Z,3.85
2022-09-12T11:52:46.867Z,2.67
2022-09-12T11:56:06.309Z,1.67
2022-09-12T11:59:00.071Z,3.05
2022-09-12T12:01:48.707Z,5.57
2022-09-12T12:04:41.745Z,1.60
2022-09-12T12:07:34.637Z,3.58
2022-09-12T12:10:26.692Z,6.68
2022-09-12T12:13:15.596Z,4.13
2022-09-12T12:16:21.501Z,2.33
2022-09-12T12:19:20.443Z,3.30
2022-09-12T12:22:08.852Z,2.97
2022-09-12T12:25:04.022Z,3.35
2022-09-12T12:28:01.401Z,2.35
2022-09-12T12:30:53.371Z,3.13
2022-09-12T12:33:38.813Z,3.28
2022-09-12T12:36:40.326Z,3.03
2022-09-12T12:39:32.006Z,4.32
2022-09-12T12:42:35.859Z,3.47
2022-09-12T12:45:27.893Z,4.28
2022-09-12T12:48:17.400Z,3.95
2022-09-12T12:51:25.934Z,1.83
2022-09-12T12:54:33.653Z,3.03
2022-09-12T12:57:27.545Z,2.05
2022-09-12T13:00:26.187Z,2.22
2022-09-12T13:03:27.628Z,2.35
2022-09-12T13:06:46.453Z,5.20
2022-09-12T13:09:44.432Z,4.05
2022-09-12T13:12:33.992Z,2.45
2022-09-12T13:15:47.692Z,7.20
2022-09-12T13:18:46.691Z,8.55
2022-09-12T13:21:33.446Z,1.33
2022-09-12T13:24:22.787Z,3.58
2022-09-12T13:27:23.532Z,6.18
2022-09-12T13:30:14.080Z,2.60
2022-09-12T13:33:10.521Z,2.33
2022-09-12T13:36:18.736Z,2.80
2022-09-12T13:39:27.337Z,3.67
2022-09-12T13:42:30.770Z,1.40
2022-09-12T13:45:22.886Z,3.47
2022-09-12T13:48:14.306Z,1.75
2022-09-12T13:51:01.885Z,4.97
2022-09-12T13:53:47.862Z,8.35
2022-09-12T13:56:34.453Z,4.63
2022-09-12T13:59:19.800Z,3.55
2022-09-12T14:02:23.644Z,1.30
2022-09-12T14:05:21.731Z,2.35
2022-09-12T14:08:08.664Z,2.53
2022-09-12T14:10:55.432Z,1.33
2022-09-12T14:13:41.247Z,4.80
2022-09-12T14:16:29.356Z,2.40
2022-09-12T14:19:17.068Z,3.47
2022-09-12T14:22:03.057Z,1.58
2022-09-12T14:24:53.092Z,2.47
2022-09-12T14:27:45.712Z,2.60
2022-09-12T14:30:40.799Z,6.28
2022-09-12T14:33:26.552Z,1.52
2022-09-12T14:36:20.626Z,1.50
2022-09-12T14:39:34.785Z,1.85
2022-09-12T14:42:22.434Z,3.67
2022-09-12T14:45:27.805Z,2.13
2022-09-12T14:48:18.600Z,2.65
2022-09-12T14:51:05.512Z,2.22
2022-09-12T14:53:51.512Z,1.83
2022-09-12T14:56:42.650Z,3.33
2022-09-12T14:59:34.806Z,2.63
2022-09-12T15:02:22.530Z,2.25
2022-09-12T15:05:08.747Z,2.05
2022-09-12T15:08:01.418Z,2.83
2022-09-12T15:10:47.679Z,2.05
2022-09-12T15:13:40.138Z,5.32
2022-09-12T15:16:26.579Z,3.17
2022-09-12T15:19:12.170Z,3.33
2022-09-12T15:21:58.161Z,2.60
2022-09-12T15:24:43.532Z,2.83
2022-09-12T15:27:29.904Z,2.03
2022-09-12T15:30:16.072Z,3.63
2022-09-12T15:33:01.689Z,3.17
2022-09-12T15:35:47.770Z,2.80
2022-09-12T15:38:34.119Z,1.80
2022-09-12T15:41:33.548Z,2.53
2022-09-12T15:44:20.218Z,2.83
2022-09-12T15:47:06.195Z,4.95
2022-09-12T15:49:52.524Z,4.38
2022-09-12T15:52:38.253Z,3.25
2022-09-12T15:55:27.957Z,4.95
2022-09-12T15:58:14.111Z,2.63
2022-09-12T16:01:00.141Z,1.95
2022-09-12T16:03:47.621Z,4.82
2022-09-12T16:06:37.228Z,1.95
2022-09-12T16:09:24.132Z,2.15
2022-09-12T16:12:10.577Z,3.33
2022-09-12T16:14:57.293Z,3.45
2022-09-12T16:17:43.565Z,2.80
2022-09-12T16:20:29.524Z,1.80
2022-09-12T16:23:16.120Z,2.63
2022-09-12T16:26:04.465Z,2.83
2022-09-12T16:29:00.321Z,2.25
2022-09-12T16:31:46.045Z,2.08
2022-09-12T16:34:31.868Z,2.17
2022-09-12T16:37:18.254Z,2.88
2022-09-12T16:40:05.268Z,3.22
2022-09-12T16:42:51.297Z,3.20
2022-09-12T16:45:37.132Z,2.92
2022-09-12T16:48:22.591Z,3.42
2022-09-12T16:51:08.271Z,5.30
2022-09-12T16:53:55.386Z,3.67
2022-09-12T16:56:42.056Z,4.53
2022-09-12T16:59:28.011Z,5.18
2022-09-12T17:02:15.138Z,8.35
2022-09-12T17:05:00.500Z,8.93
2022-09-12T17:07:48.476Z,11.98
2022-09-12T17:10:34.928Z,8.68
2022-09-12T17:13:21.187Z,10.05
2022-09-12T17:16:11.667Z,11.40
2022-09-12T17:18:57.875Z,8.50
2022-09-12T17:21:48.866Z,11.52
2022-09-12T17:24:34.985Z,11.85
2022-09-12T17:27:20.526Z,9.90
2022-09-12T17:30:07.714Z,8.65
2022-09-12T17:32:54.113Z,10.98
2022-09-12T17:35:39.805Z,11.70
2022-09-12T17:38:26.048Z,10.43
2022-09-12T17:41:16.038Z,9.85
2022-09-12T17:44:04.002Z,11.27
2022-09-12T17:46:49.914Z,10.13
2022-09-12T17:49:37.841Z,7.90
2022-09-12T17:52:23.539Z,11.82
2022-09-12T17:55:09.685Z,11.93
2022-09-12T17:57:56.492Z,8.57
2022-09-12T18:01:00.886Z,7.32
2022-09-12T18:03:47.170Z,7.75
2022-09-12T18:06:33.465Z,7.10
2022-09-12T18:09:21.649Z,7.95
2022-09-12T18:12:11.049Z,5.43
2022-09-12T18:14:57.508Z,7.70
2022-09-12T18:17:44.466Z,9.32
2022-09-12T18:20:30.491Z,6.88
2022-09-12T18:23:16.761Z,10.70
2022-09-12T18:26:08.529Z,8.32
2022-09-12T18:28:54.475Z,8.82
2022-09-12T18:31:40.454Z,9.10
2022-09-12T18:34:26.651Z,8.85
2022-09-12T18:37:12.982Z,9.48
2022-09-12T18:39:59.084Z,8.25
2022-09-12T18:42:44.756Z,9.32
2022-09-12T18:45:30.630Z,21.70
2022-09-12T18:48:16.660Z,33.97
2022-09-12T18:51:06.210Z,21.13
2022-09-12T18:53:54.839Z,20.97
2022-09-12T18:56:43.571Z,21.60
2022-09-12T18:59:29.402Z,21.02
2022-09-12T19:02:16.514Z,19.83
2022-09-12T19:05:02.570Z,22.05
2022-09-12T19:07:48.483Z,20.48
2022-09-12T19:10:34.683Z,21.27
2022-09-12T19:13:20.534Z,19.33
2022-09-12T19:16:11.664Z,21.67
2022-09-12T19:18:59.366Z,22.77
2022-09-12T19:21:45.641Z,22.27
2022-09-12T19:24:31.475Z,21.67
2022-09-12T19:27:17.444Z,19.42
2022-09-12T19:30:03.373Z,19.35
2022-09-12T19:32:49.793Z,18.77
2022-09-12T19:35:37.588Z,19.63
2022-09-12T19:38:23.034Z,18.17
2022-09-12T19:41:15.032Z,21.25
2022-09-12T19:44:01.395Z,18.65
2022-09-12T19:46:47.690Z,19.23
2022-09-12T19:49:33.773Z,17.92
2022-09-12T19:52:19.848Z,22.15
2022-09-12T19:55:06.835Z,20.75
2022-09-12T19:57:53.734Z,20.70
2022-09-12T20:00:40.508Z,19.85
2022-09-12T20:03:26.670Z,16.60
2022-09-12T20:06:18.405Z,17.08
2022-09-12T20:11:50.413Z,15.77
2022-09-12T20:14:36.366Z,20.80
2022-09-12T20:17:25.214Z,18.52
2022-09-12T20:20:11.773Z,21.10
2022-09-12T20:22:57.764Z,19.52
2022-09-12T20:25:43.681Z,20.35
2022-09-12T20:28:30.483Z,25.27
2022-09-12T20:31:16.783Z,20.50
2022-09-12T20:34:04.132Z,22.17
2022-09-12T20:36:50.075Z,20.73
2022-09-12T20:39:36.161Z,19.65
2022-09-12T20:42:21.550Z,17.58
2022-09-12T20:45:07.588Z,14.25
2022-09-12T20:47:53.652Z,17.23
2022-09-12T20:50:39.349Z,16.50
2022-09-12T20:53:25.137Z,18.00
2022-09-12T20:56:11.102Z,14.88
2022-09-12T20:58:57.026Z,17.90
2022-09-12T21:01:44.327Z,14.88
2022-09-12T21:04:30.371Z,16.98
2022-09-12T21:07:16.544Z,19.70
2022-09-12T21:10:02.432Z,19.55
2022-09-12T21:12:48.625Z,24.27
2022-09-12T21:15:34.779Z,17.00
2022-09-12T21:18:20.555Z,17.27
2022-09-12T21:21:08.146Z,16.48
2022-09-12T21:23:58.168Z,17.27
2022-09-12T21:26:44.222Z,16.27
2022-09-12T21:29:30.715Z,21.15
2022-09-12T21:32:16.673Z,17.98
2022-09-12T21:35:03.962Z,17.45
2022-09-12T21:37:52.077Z,18.15
2022-09-12T21:40:38.098Z,18.25
2022-09-12T21:43:23.893Z,15.50
2022-09-12T21:46:10.462Z,18.65
2022-09-12T21:48:56.495Z,19.30
2022-09-12T21:51:42.314Z,20.35
2022-09-12T21:54:28.048Z,25.85
2022-09-12T21:57:13.608Z,18.20
2022-09-12T21:59:59.627Z,15.48
2022-09-12T22:02:47.467Z,20.77
2022-09-12T22:05:34.438Z,20.77
2022-09-12T22:08:20.113Z,44.92
2022-09-12T22:11:09.633Z,38.55
2022-09-12T22:13:55.969Z,22.75
2022-09-12T22:16:41.506Z,18.30
2022-09-12T22:19:27.521Z,19.92
2022-09-12T22:22:32.312Z,14.23
2022-09-12T22:25:20.119Z,20.95
2022-09-12T22:28:05.882Z,21.90
2022-09-12T22:30:53.300Z,22.85
2022-09-12T22:33:39.287Z,27.98
2022-09-12T22:36:29.242Z,82.68
2022-09-12T22:39:16.617Z,82.18
2022-09-12T22:42:03.893Z,40.38
2022-09-12T22:44:49.397Z,32.60
2022-09-12T22:47:36.030Z,33.17
2022-09-12T22:50:21.521Z,36.20
2022-09-12T22:53:07.241Z,32.25
2022-09-12T22:55:52.996Z,25.52
2022-09-12T22:58:38.916Z,23.80
2022-09-12T23:01:24.569Z,20.30
2022-09-12T23:04:10.810Z,19.10
2022-09-12T23:06:56.236Z,14.80
2022-09-12T23:09:42.100Z,16.50
2022-09-12T23:12:28.109Z,16.45
2022-09-12T23:15:14.969Z,15.27
2022-09-12T23:18:00.505Z,15.38
2022-09-12T23:21:06.003Z,17.33
2022-09-12T23:23:52.237Z,16.98
2022-09-12T23:26:38.584Z,14.98
2022-09-12T23:29:24.340Z,13.70
2022-09-12T23:32:10.789Z,14.25
2022-09-12T23:34:56.473Z,14.40
2022-09-12T23:37:42.607Z,13.75
2022-09-12T23:40:28.021Z,12.32
2022-09-12T23:43:13.878Z,16.67
2022-09-12T23:46:00.483Z,13.65
2022-09-12T23:48:47.181Z,18.73
2022-09-12T23:51:33.331Z,13.98
2022-09-12T23:54:18.897Z,14.40
2022-09-12T23:57:04.967Z,21.67
2022-09-12T23:59:51.152Z,24.92
